createdAt,value
2017-07-08T00:00:26.911Z,5.20
2017-07-08T00:02:54.611Z,6.60
2017-07-08T00:05:22.148Z,9.43
2017-07-08T00:07:49.703Z,6.07
2017-07-08T00:10:17.236Z,5.50
2017-07-08T00:12:44.792Z,6.80
2017-07-08T00:15:12.311Z,5.23
2017-07-08T00:17:39.865Z,4.77
2017-07-08T00:20:08.163Z,4.50
2017-07-08T00:22:35.727Z,7.07
2017-07-08T00:25:03.251Z,6.07
2017-07-08T00:27:31.558Z,5.23
2017-07-08T00:29:59.108Z,5.33
2017-07-08T00:32:26.640Z,5.93
2017-07-08T00:34:54.964Z,6.33
2017-07-08T00:37:22.485Z,4.10
2017-07-08T00:39:50.805Z,5.07
2017-07-08T00:42:18.332Z,6.90
2017-07-08T00:44:45.883Z,6.10
2017-07-08T00:47:14.234Z,6.97
2017-07-08T00:49:41.751Z,6.73
2017-07-08T00:52:09.283Z,6.60
2017-07-08T00:54:37.598Z,5.97
2017-07-08T00:57:05.126Z,13.20
2017-07-08T00:59:32.683Z,4.97
2017-07-08T01:02:00.211Z,6.17
2017-07-08T01:04:27.767Z,6.07
2017-07-08T01:06:55.299Z,8.93
2017-07-08T01:09:22.845Z,5.87
2017-07-08T01:11:50.375Z,8.40
2017-07-08T01:14:18.707Z,12.10
2017-07-08T01:16:46.236Z,7.70
2017-07-08T01:19:13.792Z,7.13
2017-07-08T01:21:41.324Z,7.23
2017-07-08T01:24:09.624Z,8.60
2017-07-08T01:26:37.183Z,6.87
2017-07-08T01:29:04.715Z,11.77
2017-07-08T01:31:33.035Z,10.17
2017-07-08T01:34:00.562Z,9.00
2017-07-08T01:36:28.888Z,11.13
2017-07-08T01:38:56.415Z,9.90
2017-07-08T01:41:23.977Z,7.13
2017-07-08T01:43:51.503Z,9.27
2017-07-08T01:46:19.062Z,10.30
2017-07-08T01:48:46.593Z,8.20
2017-07-08T01:51:14.148Z,7.60
2017-07-08T01:53:41.681Z,8.93
2017-07-08T01:56:09.236Z,9.30
2017-07-08T01:58:36.768Z,6.93
2017-07-08T02:01:05.088Z,6.93
2017-07-08T02:03:32.620Z,9.93
2017-07-08T02:06:00.179Z,10.37
2017-07-08T02:08:27.724Z,7.73
2017-07-08T02:10:56.049Z,10.77
2017-07-08T02:13:23.584Z,7.90
2017-07-08T02:15:51.155Z,8.50
2017-07-08T02:18:18.690Z,11.60
2017-07-08T02:20:46.989Z,10.57
2017-07-08T02:23:14.546Z,12.00
2017-07-08T02:25:42.085Z,9.03
2017-07-08T02:28:10.412Z,10.50
2017-07-08T02:30:37.949Z,7.40
2017-07-08T02:33:05.497Z,9.83
2017-07-08T02:35:33.027Z,8.00
2017-07-08T02:38:01.347Z,7.30
2017-07-08T02:40:28.883Z,7.90
2017-07-08T02:42:56.436Z,9.07
2017-07-08T02:45:24.734Z,9.67
2017-07-08T02:47:52.290Z,8.30
2017-07-08T02:50:19.829Z,9.10
2017-07-08T02:52:48.159Z,12.60
2017-07-08T02:55:15.683Z,7.73
2017-07-08T02:57:43.240Z,14.83
2017-07-08T03:00:10.770Z,13.50
2017-07-08T03:02:38.327Z,12.77
2017-07-08T03:05:05.851Z,9.27
2017-07-08T03:07:33.410Z,8.53
2017-07-08T03:10:00.931Z,9.10
2017-07-08T03:12:29.251Z,19.60
2017-07-08T03:14:56.779Z,9.03
2017-07-08T03:17:24.306Z,17.47
2017-07-08T03:19:51.871Z,14.47
2017-07-08T03:22:20.175Z,11.33
2017-07-08T03:24:47.735Z,7.43
2017-07-08T03:27:15.263Z,13.23
2017-07-08T03:29:42.826Z,12.43
2017-07-08T03:32:11.131Z,20.73
2017-07-08T03:34:38.695Z,17.90
2017-07-08T03:37:06.236Z,17.70
2017-07-08T03:39:34.567Z,15.90
2017-07-08T03:42:02.162Z,23.17
2017-07-08T03:44:29.693Z,23.90
2017-07-08T03:46:57.233Z,27.20
2017-07-08T03:49:24.791Z,25.07
2017-07-08T03:51:52.331Z,18.63
2017-07-08T03:54:19.887Z,25.03
2017-07-08T03:56:47.423Z,19.40
2017-07-08T03:59:15.759Z,15.73
2017-07-08T04:01:43.294Z,14.07
2017-07-08T04:04:10.851Z,13.40
2017-07-08T04:06:38.389Z,13.67
2017-07-08T04:09:06.739Z,10.07
2017-07-08T04:11:37.927Z,12.93
2017-07-08T04:14:05.471Z,14.67
2017-07-08T04:16:33.795Z,12.10
2017-07-08T04:19:01.331Z,14.73
2017-07-08T04:21:28.890Z,9.63
2017-07-08T04:23:56.424Z,11.73
2017-07-08T04:26:24.748Z,10.60
2017-07-08T04:28:52.279Z,12.37
2017-07-08T04:31:19.851Z,9.73
2017-07-08T04:33:47.382Z,9.50
2017-07-08T04:36:15.703Z,9.00
2017-07-08T04:38:43.235Z,9.53
2017-07-08T04:41:10.783Z,9.90
2017-07-08T04:43:39.083Z,11.50
2017-07-08T04:46:06.645Z,13.43
2017-07-08T04:48:34.179Z,10.20
2017-07-08T04:51:01.730Z,9.37
2017-07-08T04:53:30.028Z,8.83
2017-07-08T04:55:57.587Z,8.07
2017-07-08T04:58:25.122Z,11.37
2017-07-08T05:00:53.447Z,13.73
2017-07-08T05:03:20.986Z,13.30
2017-07-08T05:05:48.543Z,11.07
2017-07-08T05:08:16.074Z,10.77
2017-07-08T05:10:44.371Z,9.97
2017-07-08T05:13:11.934Z,9.53
2017-07-08T05:15:39.471Z,10.23
2017-07-08T05:18:07.031Z,13.00
2017-07-08T05:20:35.331Z,14.23
2017-07-08T05:23:02.900Z,12.60
2017-07-08T05:25:30.440Z,14.67
2017-07-08T05:27:58.763Z,10.70
2017-07-08T05:30:26.309Z,11.07
2017-07-08T05:32:53.880Z,12.63
2017-07-08T05:35:21.415Z,10.70
2017-07-08T05:37:48.979Z,11.97
2017-07-08T05:40:16.518Z,11.20
2017-07-08T05:42:44.845Z,9.50
2017-07-08T05:45:12.387Z,19.13
2017-07-08T05:47:39.946Z,10.20
2017-07-08T05:50:07.483Z,16.33
2017-07-08T05:52:35.047Z,10.80
2017-07-08T05:55:02.580Z,14.33
2017-07-08T05:57:30.902Z,12.47
2017-07-08T05:59:58.435Z,10.50
2017-07-08T06:02:25.983Z,14.57
2017-07-08T06:04:54.279Z,13.13
2017-07-08T06:07:21.824Z,9.83
2017-07-08T06:09:49.371Z,7.53
2017-07-08T06:12:17.667Z,7.93
2017-07-08T06:14:45.264Z,6.77
2017-07-08T06:17:12.797Z,11.23
2017-07-08T06:19:40.351Z,9.00
2017-07-08T06:22:07.870Z,8.53
2017-07-08T06:24:35.422Z,7.47
2017-07-08T06:27:02.954Z,7.50
2017-07-08T06:29:30.525Z,5.37
2017-07-08T06:31:58.063Z,8.10
2017-07-08T06:34:25.623Z,8.60
2017-07-08T06:36:53.148Z,7.10
2017-07-08T06:39:21.469Z,8.20
2017-07-08T06:41:48.995Z,5.83
2017-07-08T06:44:17.307Z,7.73
2017-07-08T06:46:44.827Z,7.80
2017-07-08T06:49:13.143Z,6.37
2017-07-08T06:51:40.662Z,7.63
2017-07-08T06:54:08.986Z,6.20
2017-07-08T06:56:36.511Z,7.47
2017-07-08T06:59:04.058Z,6.53
2017-07-08T07:01:32.347Z,4.90
2017-07-08T07:03:59.898Z,6.50
2017-07-08T07:06:27.426Z,5.70
2017-07-08T07:08:54.982Z,5.57
2017-07-08T07:11:22.512Z,10.63
2017-07-08T07:13:50.060Z,4.80
2017-07-08T07:16:17.611Z,7.30
2017-07-08T07:18:45.139Z,7.50
2017-07-08T07:21:13.560Z,7.40
2017-07-08T07:23:41.135Z,8.37
2017-07-08T07:26:08.713Z,8.07
2017-07-08T07:28:36.251Z,6.57
2017-07-08T07:31:03.807Z,5.20
2017-07-08T07:33:31.335Z,9.03
2017-07-08T07:35:58.896Z,6.70
2017-07-08T07:38:27.186Z,9.33
2017-07-08T07:40:54.745Z,6.10
2017-07-08T07:43:22.479Z,5.80
2017-07-08T07:45:50.063Z,9.00
2017-07-08T07:48:17.599Z,6.77
2017-07-08T07:50:45.931Z,5.90
2017-07-08T07:53:13.467Z,5.70
2017-07-08T07:55:41.023Z,7.17
2017-07-08T07:58:08.561Z,5.83
2017-07-08T08:00:36.886Z,5.27
2017-07-08T08:03:04.427Z,4.57
2017-07-08T08:05:31.979Z,4.83
2017-07-08T08:07:59.516Z,5.60
2017-07-08T08:10:27.076Z,7.03
2017-07-08T08:12:55.382Z,10.40
2017-07-08T08:15:22.960Z,5.63
2017-07-08T08:17:50.491Z,7.50
2017-07-08T08:20:18.033Z,6.63
2017-07-08T08:22:46.370Z,6.70
2017-07-08T08:25:13.898Z,7.07
2017-07-08T08:27:41.448Z,7.77
2017-07-08T08:30:08.982Z,6.50
2017-07-08T08:32:36.551Z,7.13
2017-07-08T08:35:04.083Z,5.60
2017-07-08T08:37:31.639Z,6.83
2017-07-08T08:39:59.170Z,5.80
2017-07-08T08:42:26.724Z,6.73
2017-07-08T08:44:54.258Z,5.43
2017-07-08T08:47:21.814Z,7.80
2017-07-08T08:49:49.355Z,5.03
2017-07-08T08:52:16.912Z,5.50
2017-07-08T08:54:44.445Z,6.00
2017-07-08T08:57:12.003Z,4.10
2017-07-08T08:59:39.539Z,4.70
2017-07-08T09:02:07.093Z,6.63
2017-07-08T09:04:34.626Z,8.77
2017-07-08T09:07:02.181Z,4.57
2017-07-08T09:09:30.475Z,6.83
2017-07-08T09:11:58.029Z,5.93
2017-07-08T09:14:25.557Z,4.90
2017-07-08T09:16:53.126Z,7.60
2017-07-08T09:19:20.656Z,6.80
2017-07-08T09:21:48.183Z,4.60
2017-07-08T09:24:15.732Z,5.10
2017-07-08T09:26:43.265Z,4.20
2017-07-08T09:29:10.824Z,7.00
2017-07-08T09:31:38.357Z,3.40
2017-07-08T09:34:05.905Z,4.20
2017-07-08T09:36:33.430Z,3.40
2017-07-08T09:39:00.984Z,3.30
2017-07-08T09:41:29.276Z,4.27
2017-07-08T09:43:56.827Z,5.20
2017-07-08T09:46:24.355Z,6.43
2017-07-08T09:48:51.915Z,4.50
2017-07-08T09:51:19.444Z,4.27
2017-07-08T09:53:47.000Z,5.63
2017-07-08T09:56:14.527Z,5.50
2017-07-08T09:58:42.081Z,4.90
2017-07-08T10:01:09.611Z,4.73
2017-07-08T10:03:37.164Z,3.90
2017-07-08T10:06:04.695Z,4.73
2017-07-08T10:08:32.250Z,5.20
2017-07-08T10:10:59.782Z,6.33
2017-07-08T10:13:27.347Z,4.33
2017-07-08T10:15:58.423Z,5.60
2017-07-08T10:18:25.987Z,6.10
2017-07-08T10:20:53.516Z,8.70
2017-07-08T10:23:21.038Z,6.07
2017-07-08T10:25:49.355Z,4.27
2017-07-08T10:28:16.886Z,5.37
2017-07-08T10:30:45.207Z,6.77
2017-07-08T10:33:12.748Z,4.83
2017-07-08T10:35:40.305Z,4.77
2017-07-08T10:38:07.841Z,4.83
2017-07-08T10:40:36.172Z,6.80
2017-07-08T10:43:03.711Z,6.40
2017-07-08T10:45:31.279Z,4.80
2017-07-08T10:47:58.819Z,9.40
2017-07-08T10:50:26.375Z,5.33
2017-07-08T10:52:53.909Z,9.40
2017-07-08T10:55:22.233Z,4.10
2017-07-08T10:57:49.759Z,5.50
2017-07-08T11:00:18.074Z,5.40
2017-07-08T11:02:45.599Z,3.97
2017-07-08T11:05:13.915Z,6.60
2017-07-08T11:07:41.447Z,4.80
2017-07-08T11:10:08.996Z,6.20
2017-07-08T11:12:36.527Z,4.57
2017-07-08T11:15:04.089Z,4.83
2017-07-08T11:17:31.620Z,6.43
2017-07-08T11:19:59.195Z,5.63
2017-07-08T11:22:26.730Z,6.60
2017-07-08T11:24:54.259Z,5.57
2017-07-08T11:27:21.811Z,5.63
2017-07-08T11:29:50.099Z,4.47
2017-07-08T11:32:17.648Z,4.97
2017-07-08T11:34:45.177Z,6.43
2017-07-08T11:37:12.727Z,7.83
2017-07-08T11:39:40.252Z,6.00
2017-07-08T11:42:07.813Z,5.73
2017-07-08T11:44:35.347Z,4.60
2017-07-08T11:47:02.899Z,4.47
2017-07-08T11:49:31.199Z,7.10
2017-07-08T11:51:58.752Z,3.83
2017-07-08T11:54:26.279Z,6.60
2017-07-08T11:56:53.836Z,4.63
2017-07-08T11:59:22.145Z,6.47
2017-07-08T12:01:49.695Z,7.70
2017-07-08T12:04:17.988Z,10.43
2017-07-08T12:06:45.543Z,4.33
2017-07-08T12:09:13.075Z,5.33
2017-07-08T12:11:41.395Z,6.03
2017-07-08T12:14:08.924Z,5.03
2017-07-08T12:16:37.245Z,3.77
2017-07-08T12:19:04.773Z,8.50
2017-07-08T12:21:32.339Z,3.90
2017-07-08T12:23:59.867Z,3.80
2017-07-08T12:26:27.395Z,6.00
2017-07-08T12:28:54.953Z,5.73
2017-07-08T12:31:22.479Z,4.33
2017-07-08T12:33:50.037Z,6.57
2017-07-08T12:36:17.564Z,4.70
2017-07-08T12:38:45.888Z,5.73
2017-07-08T12:41:13.425Z,4.30
2017-07-08T12:43:40.983Z,4.07
2017-07-08T12:46:08.515Z,4.10
2017-07-08T12:48:36.068Z,7.00
2017-07-08T12:51:03.595Z,4.07
2017-07-08T12:53:31.146Z,3.60
2017-07-08T12:55:58.671Z,3.57
2017-07-08T12:58:26.996Z,3.50
2017-07-08T13:00:54.531Z,2.70
2017-07-08T13:03:22.087Z,3.63
2017-07-08T13:05:49.612Z,3.37
2017-07-08T13:08:17.936Z,4.00
2017-07-08T13:10:45.467Z,3.63
2017-07-08T13:13:13.789Z,3.30
2017-07-08T13:15:41.319Z,2.80
2017-07-08T13:18:08.875Z,5.73
2017-07-08T13:20:36.408Z,3.57
2017-07-08T13:23:04.743Z,4.60
2017-07-08T13:25:32.277Z,5.50
2017-07-08T13:27:59.807Z,3.30
2017-07-08T13:30:27.363Z,3.40
2017-07-08T13:32:55.695Z,5.83
2017-07-08T13:35:23.250Z,3.07
2017-07-08T13:37:50.779Z,5.70
2017-07-08T13:40:18.328Z,5.03
2017-07-08T13:42:46.656Z,3.90
2017-07-08T13:45:14.210Z,9.37
2017-07-08T13:47:41.735Z,4.23
2017-07-08T13:50:09.291Z,4.60
2017-07-08T13:52:37.584Z,2.80
2017-07-08T13:55:05.140Z,2.80
2017-07-08T13:57:32.683Z,4.43
2017-07-08T14:00:01.000Z,2.80
2017-07-08T14:02:28.531Z,4.50
2017-07-08T14:04:56.083Z,8.73
2017-07-08T14:07:24.379Z,3.50
2017-07-08T14:09:51.932Z,3.70
2017-07-08T14:12:19.459Z,2.50
2017-07-08T14:14:47.780Z,2.53
2017-07-08T14:17:15.312Z,6.30
2017-07-08T14:19:43.627Z,5.83
2017-07-08T14:22:11.150Z,2.60
2017-07-08T14:24:39.470Z,3.83
2017-07-08T14:27:06.999Z,3.40
2017-07-08T14:29:34.527Z,7.40
2017-07-08T14:32:02.079Z,2.40
2017-07-08T14:34:29.608Z,5.17
2017-07-08T14:36:57.167Z,5.30
2017-07-08T14:39:24.700Z,2.83
2017-07-08T14:41:52.259Z,3.60
2017-07-08T14:44:19.783Z,2.60
2017-07-08T14:46:48.116Z,3.00
2017-07-08T14:49:15.650Z,2.80
2017-07-08T14:51:43.203Z,3.43
2017-07-08T14:54:10.732Z,5.20
2017-07-08T14:56:38.283Z,2.40
2017-07-08T14:59:05.819Z,4.17
2017-07-08T15:01:33.372Z,3.53
2017-07-08T15:04:00.903Z,5.27
2017-07-08T15:06:28.452Z,3.00
2017-07-08T15:08:56.860Z,4.53
2017-07-08T15:11:24.410Z,2.97
2017-07-08T15:13:51.940Z,2.87
2017-07-08T15:16:20.255Z,2.30
2017-07-08T15:18:47.781Z,4.47
2017-07-08T15:21:16.104Z,4.20
2017-07-08T15:23:43.633Z,3.07
2017-07-08T15:26:11.182Z,6.87
2017-07-08T15:28:39.477Z,3.50
2017-07-08T15:31:07.007Z,3.07
2017-07-08T15:33:35.330Z,3.70
2017-07-08T15:36:02.859Z,3.17
2017-07-08T15:38:31.174Z,4.17
2017-07-08T15:40:58.705Z,5.90
2017-07-08T15:43:26.261Z,3.00
2017-07-08T15:45:53.788Z,4.60
2017-07-08T15:48:21.340Z,4.03
2017-07-08T15:50:48.867Z,4.00
2017-07-08T15:53:16.426Z,3.70
2017-07-08T15:55:43.952Z,2.73
2017-07-08T15:58:12.266Z,3.67
2017-07-08T16:00:39.795Z,2.97
2017-07-08T16:03:07.350Z,2.80
2017-07-08T16:05:34.880Z,2.90
2017-07-08T16:08:02.431Z,2.90
2017-07-08T16:10:29.955Z,3.07
2017-07-08T16:12:57.508Z,3.60
2017-07-08T16:15:25.031Z,6.23
2017-07-08T16:17:53.349Z,3.50
2017-07-08T16:20:20.879Z,7.47
2017-07-08T16:22:49.196Z,2.90
2017-07-08T16:25:16.725Z,5.03
2017-07-08T16:27:44.275Z,3.40
2017-07-08T16:30:12.562Z,4.50
2017-07-08T16:32:40.095Z,4.53
2017-07-08T16:35:08.418Z,2.97
2017-07-08T16:37:35.947Z,3.37
2017-07-08T16:40:04.265Z,3.00
2017-07-08T16:42:31.807Z,4.93
2017-07-08T16:44:59.367Z,4.00
2017-07-08T16:47:26.891Z,5.20
2017-07-08T16:49:55.219Z,4.60
2017-07-08T16:52:22.751Z,3.20
2017-07-08T16:54:50.300Z,5.50
2017-07-08T16:57:18.594Z,3.90
2017-07-08T16:59:46.147Z,4.00
2017-07-08T17:02:13.678Z,2.93
2017-07-08T17:04:41.231Z,2.80
2017-07-08T17:07:08.751Z,5.77
2017-07-08T17:09:36.306Z,3.47
2017-07-08T17:12:03.831Z,2.87
2017-07-08T17:14:32.159Z,6.70
2017-07-08T17:16:59.682Z,2.90
2017-07-08T17:19:27.235Z,4.20
2017-07-08T17:21:54.763Z,3.20
2017-07-08T17:24:22.317Z,9.90
2017-07-08T17:26:49.842Z,3.40
2017-07-08T17:29:17.396Z,2.50
2017-07-08T17:31:44.924Z,2.93
2017-07-08T17:34:13.215Z,2.97
2017-07-08T17:36:40.768Z,3.33
2017-07-08T17:39:08.305Z,3.53
2017-07-08T17:41:35.860Z,3.67
2017-07-08T17:44:03.390Z,3.50
2017-07-08T17:46:30.940Z,3.77
2017-07-08T17:48:58.471Z,2.73
2017-07-08T17:51:26.019Z,3.47
2017-07-08T17:53:54.321Z,2.67
2017-07-08T17:56:21.870Z,3.57
2017-07-08T17:58:49.401Z,3.90
2017-07-08T18:01:17.718Z,3.93
2017-07-08T18:03:45.243Z,4.53
2017-07-08T18:06:13.567Z,2.70
2017-07-08T18:08:41.103Z,6.10
2017-07-08T18:11:08.655Z,3.33
2017-07-08T18:13:36.184Z,4.83
2017-07-08T18:16:03.739Z,3.47
2017-07-08T18:18:31.268Z,3.57
2017-07-08T18:20:58.827Z,4.83
2017-07-08T18:23:26.350Z,4.77
2017-07-08T18:25:53.902Z,3.73
2017-07-08T18:28:22.194Z,9.40
2017-07-08T18:30:49.738Z,3.10
2017-07-08T18:33:18.033Z,3.93
2017-07-08T18:35:45.596Z,5.27
2017-07-08T18:38:13.123Z,3.30
2017-07-08T18:40:41.423Z,5.20
2017-07-08T18:43:08.984Z,5.23
2017-07-08T18:45:36.527Z,7.13
2017-07-08T18:48:04.852Z,5.03
2017-07-08T18:50:32.385Z,4.00
2017-07-08T18:52:59.935Z,3.40
2017-07-08T18:55:27.467Z,4.40
2017-07-08T18:57:55.015Z,4.10
2017-07-08T19:00:22.549Z,3.73
2017-07-08T19:02:50.108Z,4.70
2017-07-08T19:05:17.630Z,4.37
2017-07-08T19:07:45.948Z,4.10
2017-07-08T19:10:13.480Z,3.30
2017-07-08T19:12:41.030Z,5.30
2017-07-08T19:15:08.554Z,3.63
2017-07-08T19:17:36.108Z,5.67
2017-07-08T19:20:03.631Z,4.50
2017-07-08T19:22:31.186Z,3.67
2017-07-08T19:24:58.713Z,3.43
2017-07-08T19:27:27.039Z,5.10
2017-07-08T19:29:54.562Z,4.93
2017-07-08T19:32:22.119Z,4.10
2017-07-08T19:34:50.407Z,3.33
2017-07-08T19:37:17.940Z,5.53
2017-07-08T19:39:46.256Z,6.20
2017-07-08T19:42:13.780Z,3.70
2017-07-08T19:44:42.102Z,8.63
2017-07-08T19:47:09.628Z,3.50
2017-07-08T19:49:37.183Z,6.43
2017-07-08T19:52:05.480Z,6.43
2017-07-08T19:54:33.039Z,8.23
2017-07-08T19:57:00.567Z,3.80
2017-07-08T19:59:28.883Z,5.60
2017-07-08T20:01:56.411Z,7.37
2017-07-08T20:04:24.735Z,15.63
2017-07-08T20:06:52.267Z,4.40
2017-07-08T20:09:19.839Z,4.40
2017-07-08T20:11:47.363Z,7.03
2017-07-08T20:14:15.692Z,4.33
2017-07-08T20:16:43.223Z,4.77
2017-07-08T20:19:10.788Z,4.60
2017-07-08T20:21:38.318Z,4.77
2017-07-08T20:24:06.642Z,6.10
2017-07-08T20:26:34.171Z,9.73
2017-07-08T20:29:02.480Z,3.67
2017-07-08T20:31:30.015Z,5.10
2017-07-08T20:33:57.567Z,6.03
2017-07-08T20:36:25.095Z,4.43
2017-07-08T20:38:52.648Z,6.23
2017-07-08T20:41:20.203Z,5.13
2017-07-08T20:43:47.735Z,7.10
2017-07-08T20:46:15.287Z,6.30
2017-07-08T20:48:43.477Z,7.97
2017-07-08T20:51:11.050Z,5.90
2017-07-08T20:53:38.575Z,5.37
2017-07-08T20:56:06.139Z,5.17
2017-07-08T20:58:33.663Z,3.77
2017-07-08T21:01:01.222Z,5.10
2017-07-08T21:03:29.524Z,6.13
2017-07-08T21:05:57.086Z,6.33
2017-07-08T21:08:24.619Z,7.50
2017-07-08T21:10:52.942Z,3.87
2017-07-08T21:13:20.478Z,12.67
2017-07-08T21:15:48.026Z,4.80
2017-07-08T21:18:16.319Z,4.47
2017-07-08T21:20:43.871Z,6.23
2017-07-08T21:23:11.405Z,6.17
2017-07-08T21:25:38.960Z,4.00
2017-07-08T21:28:06.503Z,4.20
2017-07-08T21:30:34.059Z,4.90
2017-07-08T21:33:01.592Z,4.50
2017-07-08T21:35:29.160Z,4.27
2017-07-08T21:37:56.688Z,7.30
2017-07-08T21:40:24.223Z,4.47
2017-07-08T21:42:51.779Z,4.90
2017-07-08T21:45:19.315Z,6.77
2017-07-08T21:47:46.887Z,5.13
2017-07-08T21:50:14.415Z,9.30
2017-07-08T21:52:41.959Z,7.73
2017-07-08T21:55:09.496Z,4.57
2017-07-08T21:57:37.812Z,8.20
2017-07-08T22:00:05.345Z,6.93
2017-07-08T22:02:32.899Z,7.43
2017-07-08T22:05:00.434Z,6.53
2017-07-08T22:07:27.996Z,9.43
2017-07-08T22:09:56.298Z,5.60
2017-07-08T22:12:23.845Z,5.23
2017-07-08T22:14:52.144Z,6.33
2017-07-08T22:17:19.707Z,4.40
2017-07-08T22:19:47.235Z,6.23
2017-07-08T22:22:15.559Z,6.07
2017-07-08T22:24:43.088Z,5.90
2017-07-08T22:27:10.659Z,7.80
2017-07-08T22:29:38.194Z,6.67
2017-07-08T22:51:31.631Z,6.60
2017-07-08T22:53:59.188Z,8.73
2017-07-08T22:56:26.715Z,6.57
2017-07-08T22:58:55.035Z,5.63
2017-07-08T23:01:22.561Z,5.10
2017-07-08T23:03:50.123Z,10.43
2017-07-08T23:06:17.657Z,7.60
2017-07-08T23:08:45.975Z,6.43
2017-07-08T23:11:13.503Z,5.70
2017-07-08T23:13:41.820Z,6.70
2017-07-08T23:16:09.343Z,4.70
2017-07-08T23:18:37.663Z,6.13
2017-07-08T23:21:05.195Z,4.70
2017-07-08T23:23:32.746Z,6.90
2017-07-08T23:26:00.271Z,5.57
2017-07-08T23:28:27.820Z,5.60
2017-07-08T23:30:55.352Z,5.80
2017-07-08T23:33:22.903Z,6.03
2017-07-08T23:35:50.423Z,5.33
2017-07-08T23:38:18.715Z,4.97
2017-07-08T23:40:47.028Z,5.97
2017-07-08T23:43:14.564Z,10.10
2017-07-08T23:45:42.120Z,6.80
2017-07-08T23:48:09.648Z,5.43
2017-07-08T23:50:37.195Z,5.40
2017-07-08T23:53:04.723Z,5.07
2017-07-08T23:55:32.271Z,6.43
2017-07-08T23:57:59.826Z,5.73
